Argo, Illinois
Current Conditions -  °F | °C
As of 11:53 PM on Thursday 30 Oct 2014 (Local Time) from KMDW Reporting Station
Overcast Overcast  
Wind Chill: 44°   Ceiling: 11000
Heat Index: 48°   Visibility: 10mi
Dew Point: 37°   Wind: 9mph
Humidity: 66%   Direction: 270°W
Pressure: 30.04"   Gusts: NA
Location:  41.7806°N, 87.8151°W
Report Text: KMDW 310453Z 27008KT 10SM FEW055 OVC110 09/03 A3004 RMK AO2 SLP174 T00890028
Loading
Personal Weather Stations






























Interactive Weather Map
Tropical Storm Tracking
New forecast layout! Learn more

10-Day Weather Forecast

Advertisements
Track Severe Weather on mobile